Time;durP1;ratioP1;P1;durP2;ratioP2;P2;SDS_P1;SDS_P2;PMS_P1;PMS_P2;Temp;Humidity;BMP_temperature;BMP_pressure;BME280_temperature;BME280_humidity;BME280_pressure;Samples;Min_cycle;Max_cycle;Signal;HPM_P1;HPM_P2
2023/10/03 00:02:00;;;;;;;4.03;2.63;;;30.80;99.90;;;;;;5074518;28;20189;-78
2023/10/03 00:04:34;;;;;;;3.28;2.55;;;30.90;99.90;;;;;;5071548;28;20193;-78
2023/10/03 00:07:05;;;;;;;3.67;2.70;;;31.00;99.90;;;;;;5069494;28;20276;-80
2023/10/03 00:09:36;;;;;;;4.72;2.80;;;31.00;99.90;;;;;;5069184;28;20706;-78
2023/10/03 00:12:08;;;;;;;5.75;2.58;;;31.20;99.90;;;;;;5083330;28;20664;-77
2023/10/03 00:14:39;;;;;;;5.82;4.88;;;31.30;99.90;;;;;;5070147;28;20754;-79
2023/10/03 00:17:10;;;;;;;3.28;2.80;;;31.40;99.90;;;;;;5067128;28;20200;-81
2023/10/03 00:19:43;;;;;;;4.38;2.80;;;31.50;99.90;;;;;;5070677;28;20239;-78
2023/10/03 00:22:14;;;;;;;3.15;2.42;;;31.70;99.90;;;;;;5069373;28;20215;-80
2023/10/03 00:24:45;;;;;;;6.82;2.85;;;31.80;99.90;;;;;;5068501;28;20192;-79
2023/10/03 00:27:16;;;;;;;5.28;2.90;;;31.90;99.90;;;;;;5070104;28;20196;-81
2023/10/03 00:29:47;;;;;;;5.10;2.88;;;32.00;99.90;;;;;;5070135;28;20553;-79
2023/10/03 00:32:18;;;;;;;5.43;2.90;;;32.10;99.90;;;;;;5069477;28;20204;-76
2023/10/03 00:34:51;;;;;;;4.22;2.78;;;32.20;99.90;;;;;;5067441;28;20582;-77
2023/10/03 00:37:24;;;;;;;5.07;2.50;;;32.40;99.90;;;;;;5073439;28;20193;-78
2023/10/03 00:39:57;;;;;;;3.63;2.40;;;32.50;99.90;;;;;;5070402;28;20230;-81
2023/10/03 00:42:29;;;;;;;5.22;2.50;;;32.70;99.90;;;;;;5070461;28;20204;-78
2023/10/03 00:44:59;;;;;;;4.80;2.50;;;32.80;99.90;;;;;;5071237;28;20197;-78
2023/10/03 00:47:30;;;;;;;4.85;3.08;;;32.80;99.90;;;;;;5071231;28;20207;-80
2023/10/03 00:50:03;;;;;;;4.57;2.63;;;32.90;99.90;;;;;;5073481;28;20192;-79
2023/10/03 00:52:36;;;;;;;4.32;2.40;;;33.10;99.90;;;;;;5072955;28;20205;-80
2023/10/03 00:55:08;;;;;;;3.72;2.33;;;33.20;99.90;;;;;;5093488;28;20307;-80
2023/10/03 00:57:39;;;;;;;3.67;2.70;;;33.30;99.90;;;;;;5073311;28;20625;-80
2023/10/03 01:00:15;;;;;;;3.42;2.60;;;33.40;99.90;;;;;;5070351;28;20565;-82
2023/10/03 01:02:53;;;;;;;5.15;2.97;;;33.50;99.90;;;;;;5071817;28;20209;-81
2023/10/03 01:05:25;;;;;;;4.88;2.45;;;33.60;99.90;;;;;;5057297;28;20588;-82
2023/10/03 01:07:56;;;;;;;2.92;2.45;;;33.70;99.90;;;;;;5052718;28;20236;-78
2023/10/03 01:10:28;;;;;;;3.70;2.65;;;33.80;99.90;;;;;;5080103;28;20239;-80
2023/10/03 01:13:05;;;;;;;5.32;2.80;;;33.80;99.90;;;;;;5079874;28;20278;-79
2023/10/03 01:15:36;;;;;;;4.72;2.58;;;33.90;99.90;;;;;;5085409;28;20266;-78
2023/10/03 01:18:11;;;;;;;3.42;2.47;;;34.00;99.90;;;;;;5089909;28;20200;-79
2023/10/03 01:20:48;;;;;;;2.85;2.28;;;34.20;99.90;;;;;;5086009;28;20202;-80
2023/10/03 01:23:21;;;;;;;5.03;2.67;;;34.30;99.90;;;;;;5066923;28;20216;-78
2023/10/03 01:25:52;;;;;;;4.35;2.80;;;34.30;99.90;;;;;;5079537;28;20196;-80
2023/10/03 01:28:23;;;;;;;5.93;3.08;;;34.40;99.90;;;;;;5067985;28;20193;-77
2023/10/03 01:37:20;;;;;;;3.72;2.90;;;34.50;99.50;;;;;;5070926;28;20226;-78
2023/10/03 01:39:53;;;;;;;3.25;2.60;;;34.40;99.40;;;;;;5071748;28;20201;-80
2023/10/03 01:42:23;;;;;;;4.00;2.53;;;34.40;99.20;;;;;;5075842;28;20193;-77
2023/10/03 01:44:54;;;;;;;5.28;2.80;;;34.40;99.10;;;;;;5071133;28;20197;-80
2023/10/03 01:47:26;;;;;;;4.35;2.80;;;34.30;98.70;;;;;;5068848;28;20204;-76
2023/10/03 01:49:58;;;;;;;3.28;2.53;;;34.40;99.10;;;;;;5065494;28;20196;-79
2023/10/03 01:52:28;;;;;;;4.78;2.70;;;34.40;98.10;;;;;;5064408;28;20656;-75
2023/10/03 01:55:02;;;;;;;7.28;3.22;;;34.40;97.40;;;;;;5069962;28;20200;-78
2023/10/03 01:57:33;;;;;;;4.50;2.83;;;34.50;97.20;;;;;;5067692;28;20228;-79
2023/10/03 02:00:11;;;;;;;4.30;2.83;;;34.60;96.80;;;;;;5069804;28;20197;-81
2023/10/03 02:05:48;;;;;;;5.05;3.33;;;34.60;96.50;;;;;;5051598;28;20200;-75
2023/10/03 02:08:20;;;;;;;3.75;2.80;;;34.60;95.00;;;;;;5051274;28;20197;-80
2023/10/03 02:10:53;;;;;;;3.65;2.47;;;34.60;93.50;;;;;;5061675;28;20682;-80
2023/10/03 02:13:24;;;;;;;3.80;2.42;;;34.80;93.60;;;;;;5073099;28;20636;-79
2023/10/03 02:15:58;;;;;;;3.20;2.25;;;34.90;92.90;;;;;;5072839;28;20188;-79
2023/10/03 02:18:29;;;;;;;4.20;2.35;;;35.00;93.00;;;;;;5073596;28;20196;-79
2023/10/03 02:21:02;;;;;;;2.95;2.40;;;35.00;92.10;;;;;;5073021;28;20189;-81
2023/10/03 02:23:32;;;;;;;3.63;2.50;;;35.10;91.30;;;;;;5072995;28;20212;-80
2023/10/03 02:26:12;;;;;;;4.45;2.20;;;35.10;91.70;;;;;;5072747;28;20528;-78
2023/10/03 02:28:43;;;;;;;3.47;2.40;;;35.20;91.00;;;;;;5073122;28;20540;-78
2023/10/03 02:31:15;;;;;;;5.20;2.38;;;35.30;90.10;;;;;;5073252;28;20184;-84
2023/10/03 02:33:46;;;;;;;3.20;2.15;;;35.30;90.10;;;;;;5072720;28;20219;-79
2023/10/03 02:36:17;;;;;;;3.17;2.10;;;35.20;90.50;;;;;;5073277;28;20231;-74
2023/10/03 02:38:47;;;;;;;4.68;2.10;;;35.10;90.00;;;;;;5073234;28;20188;-81
2023/10/03 02:41:21;;;;;;;4.32;2.30;;;35.10;90.00;;;;;;5073275;28;20192;-77
2023/10/03 02:43:51;;;;;;;4.18;2.08;;;35.10;89.10;;;;;;5073108;28;20293;-74
2023/10/03 02:46:22;;;;;;;2.40;2.20;;;35.10;86.70;;;;;;5071824;28;20192;-76
2023/10/03 02:48:55;;;;;;;4.05;2.20;;;35.10;87.80;;;;;;5072231;28;20196;-80
2023/10/03 02:51:26;;;;;;;3.85;2.00;;;35.20;86.90;;;;;;5073094;28;20227;-79
2023/10/03 02:53:57;;;;;;;4.82;2.00;;;35.20;88.40;;;;;;5071908;28;20622;-74
2023/10/03 02:56:29;;;;;;;2.00;1.75;;;35.20;87.30;;;;;;5068115;28;20189;-78
2023/10/03 02:59:00;;;;;;;2.97;2.10;;;35.20;83.90;;;;;;5073280;28;20669;-74
2023/10/03 03:01:33;;;;;;;2.63;1.90;;;35.20;85.70;;;;;;5053043;28;20196;-74
2023/10/03 03:04:05;;;;;;;2.17;1.70;;;35.20;84.20;;;;;;5063063;28;20683;-80
2023/10/03 03:06:39;;;;;;;2.70;2.05;;;35.20;82.50;;;;;;5072594;28;20540;-74
2023/10/03 03:09:13;;;;;;;3.35;2.00;;;35.20;82.40;;;;;;5054095;28;20201;-74
2023/10/03 03:11:52;;;;;;;2.40;1.80;;;35.20;83.70;;;;;;5065312;28;20282;-73
2023/10/03 03:14:24;;;;;;;3.13;1.92;;;35.10;82.90;;;;;;5052652;28;20215;-74
2023/10/03 03:16:56;;;;;;;2.97;1.95;;;35.20;83.50;;;;;;5052853;28;20600;-73
2023/10/03 03:19:27;;;;;;;3.38;1.80;;;35.20;82.20;;;;;;5066341;28;20408;-73
2023/10/03 03:22:01;;;;;;;6.25;1.80;;;35.20;82.00;;;;;;5072861;28;20192;-74
2023/10/03 03:24:35;;;;;;;2.17;1.70;;;35.10;81.10;;;;;;5072433;28;20216;-74
2023/10/03 03:27:11;;;;;;;2.30;1.70;;;35.10;79.90;;;;;;5072598;28;20539;-75
2023/10/03 03:29:57;;;;;;;2.63;1.73;;;35.10;80.90;;;;;;5069060;28;20203;-75
2023/10/03 03:32:28;;;;;;;6.18;2.10;;;35.10;80.60;;;;;;5065887;28;20230;-76
2023/10/03 03:35:01;;;;;;;4.30;2.20;;;35.10;82.10;;;;;;5072178;28;20196;-81
2023/10/03 03:37:37;;;;;;;2.58;1.80;;;35.20;82.00;;;;;;5072051;28;20197;-77
2023/10/03 03:40:12;;;;;;;2.65;1.92;;;35.10;81.30;;;;;;5077989;28;20195;-79
2023/10/03 03:42:45;;;;;;;2.60;1.77;;;35.10;80.90;;;;;;5088099;28;20191;-78
2023/10/03 03:45:16;;;;;;;3.55;2.00;;;35.10;80.90;;;;;;5089646;28;20231;-78
2023/10/03 03:47:50;;;;;;;4.32;1.80;;;35.10;79.50;;;;;;5078928;28;20249;-79
2023/10/03 03:50:21;;;;;;;2.50;1.95;;;35.20;79.10;;;;;;5075804;28;20196;-78
2023/10/03 03:52:52;;;;;;;3.75;2.08;;;35.20;79.30;;;;;;5076547;28;20200;-76
2023/10/03 03:55:23;;;;;;;2.72;1.83;;;35.20;78.40;;;;;;5074156;28;20676;-77
2023/10/03 03:57:56;;;;;;;2.63;1.88;;;35.20;79.30;;;;;;5076742;28;20246;-79
2023/10/03 04:00:28;;;;;;;3.20;2.17;;;35.30;78.70;;;;;;5076681;28;20200;-82
2023/10/03 04:03:00;;;;;;;3.10;1.80;;;35.30;78.20;;;;;;5072697;28;20212;-76
2023/10/03 04:05:33;;;;;;;2.25;2.00;;;35.20;78.50;;;;;;5074660;28;20244;-78
2023/10/03 04:08:04;;;;;;;4.15;2.00;;;35.20;78.20;;;;;;5072718;28;20197;-83
2023/10/03 04:10:36;;;;;;;3.25;2.20;;;35.20;79.10;;;;;;5083426;28;20188;-81
2023/10/03 04:13:10;;;;;;;4.82;2.10;;;35.20;80.00;;;;;;5083564;28;20275;-74
2023/10/03 04:15:43;;;;;;;2.75;1.80;;;35.30;80.40;;;;;;5074164;28;20666;-80
2023/10/03 04:18:15;;;;;;;3.38;2.20;;;35.40;79.40;;;;;;5075656;28;20203;-80
2023/10/03 04:20:48;;;;;;;3.78;2.17;;;35.30;80.00;;;;;;5075627;28;20552;-78
2023/10/03 04:23:19;;;;;;;4.82;2.28;;;35.30;79.70;;;;;;5082021;28;20283;-78
2023/10/03 04:25:50;;;;;;;4.97;2.42;;;35.40;78.10;;;;;;5074360;28;20192;-78
2023/10/03 04:28:23;;;;;;;2.90;1.88;;;35.30;80.70;;;;;;5067681;28;20231;-77
2023/10/03 04:30:54;;;;;;;4.05;1.90;;;35.30;78.90;;;;;;5072167;28;20753;-78
2023/10/03 04:33:25;;;;;;;2.83;1.95;;;35.20;79.10;;;;;;5074997;28;20572;-80
2023/10/03 04:35:56;;;;;;;2.65;2.17;;;35.20;80.00;;;;;;5087735;28;20188;-82
2023/10/03 04:38:27;;;;;;;2.17;1.83;;;35.20;80.00;;;;;;5074421;28;20618;-79
2023/10/03 04:40:58;;;;;;;5.45;2.35;;;35.10;79.20;;;;;;5076451;28;20542;-79
2023/10/03 04:43:31;;;;;;;4.35;2.05;;;35.10;78.80;;;;;;5079386;28;20587;-81
2023/10/03 04:46:02;;;;;;;4.43;2.10;;;35.10;79.10;;;;;;5075514;28;20628;-73
2023/10/03 04:48:33;;;;;;;4.00;2.13;;;35.10;78.70;;;;;;5064657;28;20206;-74
2023/10/03 04:51:03;;;;;;;3.80;2.15;;;35.10;78.60;;;;;;5070016;28;20246;-75
2023/10/03 04:53:35;;;;;;;2.95;2.30;;;35.10;78.70;;;;;;5074241;28;20576;-76
2023/10/03 04:56:06;;;;;;;2.83;2.40;;;35.20;78.10;;;;;;5070495;28;20652;-75
2023/10/03 04:58:39;;;;;;;3.50;2.40;;;35.20;77.70;;;;;;5073592;28;20199;-77
2023/10/03 05:01:13;;;;;;;4.55;2.10;;;35.20;77.90;;;;;;5073522;28;20287;-75
2023/10/03 05:03:47;;;;;;;2.75;2.08;;;35.30;78.40;;;;;;5073454;28;20662;-78
2023/10/03 05:06:18;;;;;;;3.33;2.22;;;35.30;77.60;;;;;;5084728;28;20651;-79
2023/10/03 05:08:49;;;;;;;3.22;2.00;;;35.20;76.50;;;;;;5078588;28;20196;-79
2023/10/03 05:11:24;;;;;;;4.55;2.10;;;35.20;77.00;;;;;;5073087;28;20280;-83
2023/10/03 05:13:57;;;;;;;3.15;2.13;;;35.10;77.80;;;;;;5072922;28;20215;-79
2023/10/03 05:16:29;;;;;;;2.85;2.28;;;35.00;77.80;;;;;;5062927;28;20204;-78
2023/10/03 05:19:00;;;;;;;4.25;2.35;;;35.00;76.30;;;;;;5074605;28;20378;-78
2023/10/03 05:21:32;;;;;;;3.20;2.20;;;34.90;77.10;;;;;;5074613;28;20219;-81
2023/10/03 05:24:03;;;;;;;3.25;2.33;;;34.90;77.30;;;;;;5074099;28;20251;-82
2023/10/03 05:26:34;;;;;;;3.78;2.17;;;34.90;76.30;;;;;;5073997;28;20526;-80
2023/10/03 05:29:07;;;;;;;2.63;1.90;;;34.80;75.30;;;;;;5073895;28;20255;-79
2023/10/03 05:31:41;;;;;;;3.53;1.98;;;34.80;75.40;;;;;;5070335;28;20193;-78
2023/10/03 05:34:12;;;;;;;2.10;1.90;;;34.70;75.80;;;;;;5073781;28;20237;-79
2023/10/03 05:36:44;;;;;;;2.67;1.83;;;34.50;74.70;;;;;;5073864;28;20645;-80
2023/10/03 05:39:16;;;;;;;2.88;2.00;;;34.50;74.40;;;;;;5073138;28;20185;-80
2023/10/03 05:41:46;;;;;;;2.53;1.80;;;34.40;74.00;;;;;;5072846;28;20217;-79
2023/10/03 05:44:21;;;;;;;2.03;1.77;;;34.30;74.20;;;;;;5064606;28;20718;-81
2023/10/03 05:46:55;;;;;;;3.20;1.88;;;34.20;74.70;;;;;;5071661;28;20698;-77
2023/10/03 05:49:26;;;;;;;3.10;2.00;;;34.20;75.30;;;;;;5071568;28;20228;-74
2023/10/03 05:51:57;;;;;;;4.45;1.75;;;34.10;73.90;;;;;;5069299;28;20196;-75
2023/10/03 05:54:30;;;;;;;3.55;1.90;;;34.00;73.90;;;;;;5070865;28;20198;-76
2023/10/03 05:57:01;;;;;;;2.53;1.60;;;34.00;73.70;;;;;;5082580;28;20224;-74
2023/10/03 05:59:34;;;;;;;2.85;1.88;;;34.00;73.00;;;;;;5071696;28;20188;-80
2023/10/03 06:02:05;;;;;;;4.57;2.70;;;33.90;76.00;;;;;;5071197;28;20284;-80
2023/10/03 06:04:38;;;;;;;8.88;3.33;;;33.50;84.60;;;;;;5076702;28;20211;-81
2023/10/03 06:07:09;;;;;;;7.55;3.50;;;33.20;88.00;;;;;;5071271;28;20201;-79
2023/10/03 06:09:40;;;;;;;6.55;3.47;;;32.90;90.60;;;;;;5068405;28;20192;-76
2023/10/03 06:12:11;;;;;;;9.40;3.67;;;32.50;91.90;;;;;;5070393;28;20249;-76
2023/10/03 06:14:44;;;;;;;7.70;3.83;;;32.30;92.20;;;;;;5087624;28;20208;-76
2023/10/03 06:17:16;;;;;;;9.60;3.90;;;32.00;92.60;;;;;;5073490;28;20292;-77
2023/10/03 06:19:48;;;;;;;5.45;3.50;;;31.80;93.40;;;;;;5072725;28;20568;-76
2023/10/03 06:22:19;;;;;;;7.28;4.10;;;31.60;93.30;;;;;;5068564;28;20275;-79
2023/10/03 06:24:50;;;;;;;9.38;4.28;;;31.30;93.40;;;;;;5066969;28;20213;-75
2023/10/03 06:27:21;;;;;;;8.32;4.30;;;31.00;93.40;;;;;;5069402;28;20283;-79
2023/10/03 06:29:54;;;;;;;7.90;4.10;;;30.90;94.00;;;;;;5073639;28;20300;-79
2023/10/03 06:32:25;;;;;;;7.70;4.47;;;30.80;94.30;;;;;;5067438;28;20673;-79
2023/10/03 06:34:56;;;;;;;10.02;4.47;;;30.70;94.60;;;;;;5073998;28;20196;-80
2023/10/03 06:37:28;;;;;;;8.45;4.70;;;30.50;94.90;;;;;;5074751;28;20275;-78
2023/10/03 06:39:59;;;;;;;10.23;4.97;;;30.40;95.10;;;;;;5060771;28;20657;-79
2023/10/03 06:42:31;;;;;;;10.25;5.10;;;30.10;96.00;;;;;;5072265;28;20282;-80
2023/10/03 06:45:05;;;;;;;8.98;4.88;;;30.10;96.20;;;;;;5074329;28;20634;-79
2023/10/03 06:47:35;;;;;;;11.18;5.18;;;30.00;96.50;;;;;;5071237;28;20235;-81
2023/10/03 06:50:07;;;;;;;13.60;5.32;;;29.90;96.70;;;;;;5069683;28;20280;-80
2023/10/03 06:52:38;;;;;;;9.93;5.45;;;29.90;96.90;;;;;;5064401;28;20941;-79
2023/10/03 06:55:11;;;;;;;11.75;5.07;;;29.80;97.30;;;;;;5068925;28;20631;-78
2023/10/03 06:57:42;;;;;;;10.93;5.20;;;29.70;97.60;;;;;;5070504;28;20253;-80
2023/10/03 07:00:16;;;;;;;9.85;4.95;;;29.60;97.50;;;;;;5071346;28;20236;-77
2023/10/03 07:02:48;;;;;;;9.52;5.03;;;29.50;97.70;;;;;;5069240;28;20771;-80
2023/10/03 07:05:20;;;;;;;13.10;5.28;;;29.40;98.00;;;;;;5067894;28;20227;-77
2023/10/03 07:07:50;;;;;;;9.52;5.30;;;29.30;98.10;;;;;;5072149;28;20332;-76
2023/10/03 07:10:23;;;;;;;10.80;5.25;;;29.20;98.40;;;;;;5071190;28;20272;-79
2023/10/03 07:12:54;;;;;;;10.55;5.10;;;29.20;98.40;;;;;;5078985;28;20201;-77
2023/10/03 07:15:28;;;;;;;9.05;5.15;;;29.20;98.60;;;;;;5075517;28;20261;-78
2023/10/03 07:17:58;;;;;;;10.95;5.85;;;29.10;98.60;;;;;;5076070;28;20690;-76
2023/10/03 07:20:34;;;;;;;7.82;4.78;;;29.10;98.90;;;;;;5072507;28;20261;-80
2023/10/03 07:23:05;;;;;;;10.43;5.22;;;29.00;99.10;;;;;;5073441;28;20271;-79
2023/10/03 07:25:37;;;;;;;8.60;5.18;;;28.90;99.40;;;;;;5081150;28;20220;-79
2023/10/03 07:28:09;;;;;;;11.93;5.20;;;28.90;99.20;;;;;;5081148;28;20232;-79
2023/10/03 07:30:44;;;;;;;9.70;5.95;;;28.80;99.40;;;;;;5073389;28;20284;-78
2023/10/03 07:33:14;;;;;;;11.30;5.20;;;28.80;99.80;;;;;;5075317;28;20286;-81
2023/10/03 07:35:45;;;;;;;10.88;5.82;;;28.70;99.90;;;;;;5078368;28;20641;-79
2023/10/03 07:38:17;;;;;;;12.20;5.78;;;28.60;99.90;;;;;;5072551;28;20239;-80
2023/10/03 07:40:48;;;;;;;13.02;6.15;;;28.60;99.90;;;;;;5078684;28;20226;-80
2023/10/03 07:43:19;;;;;;;8.10;5.68;;;28.50;99.90;;;;;;5069589;28;20194;-80
2023/10/03 07:45:51;;;;;;;11.80;6.05;;;28.50;99.90;;;;;;5074921;28;20216;-79
2023/10/03 07:48:22;;;;;;;10.88;5.80;;;28.40;99.90;;;;;;5068943;28;20228;-78
2023/10/03 07:50:53;;;;;;;11.10;6.28;;;28.30;99.90;;;;;;5073315;28;20289;-79
2023/10/03 07:53:29;;;;;;;13.35;6.38;;;28.20;99.90;;;;;;5072480;28;20193;-80
2023/10/03 07:56:01;;;;;;;14.10;6.82;;;28.10;99.90;;;;;;5071728;28;20228;-79
2023/10/03 07:58:32;;;;;;;13.35;6.25;;;28.00;99.90;;;;;;5070623;28;20228;-79
2023/10/03 08:01:05;;;;;;;15.65;6.80;;;27.90;99.90;;;;;;5065347;28;20197;-80
2023/10/03 08:03:36;;;;;;;12.15;6.70;;;27.80;99.90;;;;;;5069357;28;20720;-79
2023/10/03 08:06:10;;;;;;;15.05;6.45;;;27.80;99.90;;;;;;5069464;28;20213;-78
2023/10/03 08:08:41;;;;;;;12.48;6.68;;;27.70;99.90;;;;;;5070385;28;20205;-80
2023/10/03 08:11:13;;;;;;;15.82;7.00;;;27.50;99.90;;;;;;5070933;28;20537;-80
2023/10/03 08:13:44;;;;;;;15.02;6.60;;;27.40;99.90;;;;;;5066393;28;20563;-78
2023/10/03 08:16:19;;;;;;;13.65;6.47;;;27.40;99.90;;;;;;5070992;28;20660;-79
2023/10/03 08:18:57;;;;;;;14.45;6.35;;;27.30;99.90;;;;;;5072447;28;20208;-80
2023/10/03 08:21:29;;;;;;;14.30;6.60;;;27.20;99.90;;;;;;5071369;28;20203;-80
2023/10/03 08:24:09;;;;;;;15.20;6.50;;;27.20;99.90;;;;;;5069963;28;20200;-79
2023/10/03 08:26:46;;;;;;;14.45;6.85;;;27.10;99.90;;;;;;5070536;28;20227;-79
2023/10/03 08:29:21;;;;;;;13.65;6.43;;;27.00;99.90;;;;;;5071800;28;20284;-81
2023/10/03 08:31:57;;;;;;;12.95;6.50;;;26.90;99.90;;;;;;5073376;28;20532;-79
2023/10/03 08:34:28;;;;;;;15.40;7.28;;;26.80;99.90;;;;;;5070269;28;20197;-79
2023/10/03 08:37:02;;;;;;;14.75;6.72;;;26.80;99.90;;;;;;5071301;28;20232;-77
2023/10/03 08:39:33;;;;;;;13.90;6.63;;;26.70;99.90;;;;;;5071263;28;20205;-79
2023/10/03 08:42:13;;;;;;;12.90;6.50;;;26.60;99.90;;;;;;5071274;28;20197;-77
2023/10/03 08:44:53;;;;;;;14.27;7.25;;;26.50;99.90;;;;;;5073645;28;20193;-77
2023/10/03 08:47:33;;;;;;;12.93;6.50;;;26.40;99.90;;;;;;5073224;28;20215;-76
2023/10/03 08:50:14;;;;;;;13.32;6.13;;;26.30;99.90;;;;;;5062679;28;20280;-78
2023/10/03 08:52:47;;;;;;;15.93;6.53;;;26.30;99.90;;;;;;5065882;28;20193;-77
2023/10/03 08:55:19;;;;;;;16.20;6.88;;;26.30;99.90;;;;;;5072371;28;20224;-78
2023/10/03 08:57:50;;;;;;;15.25;7.00;;;26.20;99.90;;;;;;5083879;28;20239;-79
2023/10/03 09:00:25;;;;;;;16.70;7.10;;;26.10;99.90;;;;;;5069466;28;20242;-78
2023/10/03 09:03:09;;;;;;;20.10;7.30;;;26.10;99.90;;;;;;5071249;28;20700;-78
2023/10/03 09:05:42;;;;;;;14.80;7.47;;;26.00;99.90;;;;;;5071538;28;20239;-78
2023/10/03 09:08:14;;;;;;;18.30;7.28;;;25.90;99.90;;;;;;5072682;28;20281;-78
2023/10/03 09:10:52;;;;;;;15.73;7.28;;;25.90;99.90;;;;;;5074602;28;20193;-77
2023/10/03 09:13:27;;;;;;;16.48;7.10;;;25.80;99.90;;;;;;5071116;28;20209;-76
2023/10/03 09:16:07;;;;;;;16.58;7.20;;;25.80;99.90;;;;;;5071668;28;20211;-76
2023/10/03 09:18:43;;;;;;;17.10;7.00;;;25.70;99.90;;;;;;5073575;28;20246;-77
2023/10/03 09:21:23;;;;;;;19.55;7.03;;;25.70;99.90;;;;;;5071195;28;20251;-76
2023/10/03 09:24:01;;;;;;;19.52;7.03;;;25.60;99.90;;;;;;5074477;28;20546;-76
2023/10/03 09:26:51;;;;;;;17.80;7.30;;;25.60;99.90;;;;;;5069756;28;20208;-76
2023/10/03 09:29:31;;;;;;;16.88;6.70;;;25.50;99.90;;;;;;5071720;28;20238;-77
2023/10/03 09:32:07;;;;;;;18.02;7.00;;;25.40;99.90;;;;;;5073361;28;20223;-76
2023/10/03 09:34:42;;;;;;;17.27;7.07;;;25.40;99.90;;;;;;5070150;28;20200;-77
2023/10/03 09:37:13;;;;;;;15.95;6.82;;;25.40;99.90;;;;;;5070843;28;20728;-76
2023/10/03 09:39:57;;;;;;;16.73;6.72;;;25.40;99.90;;;;;;5070901;28;20664;-77
2023/10/03 09:42:29;;;;;;;17.08;6.95;;;25.30;99.90;;;;;;5066611;28;20196;-76
2023/10/03 09:45:00;;;;;;;17.05;6.65;;;25.30;99.90;;;;;;5067732;28;20196;-76
2023/10/03 09:47:32;;;;;;;18.42;7.07;;;25.30;99.90;;;;;;5067607;28;20201;-77
2023/10/03 09:50:06;;;;;;;19.05;7.03;;;25.30;99.90;;;;;;5071602;28;20216;-77
2023/10/03 09:52:37;;;;;;;18.77;7.28;;;25.30;99.90;;;;;;5065396;28;20599;-77
2023/10/03 09:55:21;;;;;;;18.13;7.10;;;25.00;99.90;;;;;;5068248;28;20223;-76
2023/10/03 09:57:54;;;;;;;16.42;7.22;;;25.30;99.90;;;;;;5071225;28;20304;-77
2023/10/03 10:00:39;;;;;;;13.88;6.85;;;25.30;99.90;;;;;;5072752;28;21297;-77
2023/10/03 10:03:13;;;;;;;16.50;7.20;;;25.30;99.90;;;;;;5071371;28;20199;-77
2023/10/03 10:05:59;;;;;;;16.52;7.03;;;25.20;99.90;;;;;;5083959;28;20212;-76
2023/10/03 10:08:41;;;;;;;18.20;7.22;;;25.20;99.90;;;;;;5068383;28;20201;-78
2023/10/03 10:11:12;;;;;;;18.00;6.82;;;25.20;99.90;;;;;;5071937;28;20248;-78
2023/10/03 10:14:05;;;;;;;17.50;6.80;;;25.20;99.90;;;;;;5073082;28;20196;-76
2023/10/03 10:16:36;;;;;;;16.17;6.88;;;25.20;99.90;;;;;;5076551;28;20200;-76
2023/10/03 10:19:08;;;;;;;14.02;6.38;;;25.10;99.90;;;;;;5074645;28;20276;-76
2023/10/03 10:21:59;;;;;;;14.07;6.15;;;25.10;99.90;;;;;;5073251;28;20204;-76
2023/10/03 10:24:36;;;;;;;18.48;6.85;;;25.10;99.90;;;;;;5072623;28;20683;-75
2023/10/03 10:27:24;;;;;;;16.95;6.90;;;25.00;99.90;;;;;;5062608;28;20213;-76
2023/10/03 10:30:13;;;;;;;16.75;6.90;;;25.00;99.90;;;;;;5071761;28;20678;-75
2023/10/03 10:33:30;;;;;;;15.93;6.90;;;25.00;99.90;;;;;;5075582;28;20802;-76
2023/10/03 10:36:03;;;;;;;16.15;6.72;;;24.90;99.90;;;;;;5070312;28;20666;-77
2023/10/03 10:38:56;;;;;;;14.68;6.57;;;24.90;99.90;;;;;;5073106;28;20197;-79
2023/10/03 10:41:30;;;;;;;12.65;6.35;;;24.90;99.90;;;;;;5060887;28;20298;-78
2023/10/03 10:44:13;;;;;;;16.05;6.95;;;24.90;99.90;;;;;;5077060;28;20558;-77
2023/10/03 10:46:46;;;;;;;15.27;6.65;;;24.90;99.90;;;;;;5079639;28;20230;-75
2023/10/03 10:49:58;;;;;;;17.75;7.00;;;24.90;99.90;;;;;;5076344;28;20196;-77
2023/10/03 10:52:30;;;;;;;19.95;7.07;;;24.80;99.90;;;;;;5058126;28;20219;-78
2023/10/03 10:55:06;;;;;;;16.27;6.88;;;24.80;99.90;;;;;;5070048;28;20236;-78
2023/10/03 10:57:37;;;;;;;14.30;6.40;;;24.70;99.90;;;;;;5061661;28;20607;-75
2023/10/03 11:00:22;;;;;;;14.90;6.88;;;24.70;99.90;;;;;;5067549;28;20284;-76
2023/10/03 11:02:53;;;;;;;19.98;7.30;;;24.60;99.90;;;;;;5077913;28;20575;-75
2023/10/03 11:05:30;;;;;;;16.92;6.78;;;24.60;99.90;;;;;;5071891;28;20725;-75
2023/10/03 11:08:01;;;;;;;14.70;6.68;;;24.60;99.90;;;;;;5069415;28;20228;-76
2023/10/03 11:10:35;;;;;;;18.55;7.18;;;24.60;99.90;;;;;;5074168;28;20200;-75
2023/10/03 11:13:09;;;;;;;13.73;6.30;;;24.50;99.90;;;;;;5075351;28;20603;-75
2023/10/03 11:15:39;;;;;;;14.82;6.70;;;24.50;99.90;;;;;;5079261;28;20232;-77
2023/10/03 11:18:10;;;;;;;11.90;6.57;;;24.40;99.90;;;;;;5072523;28;20559;-76
2023/10/03 11:20:44;;;;;;;16.67;6.38;;;24.50;99.90;;;;;;5072567;28;20232;-76
2023/10/03 11:23:19;;;;;;;15.65;6.53;;;24.40;99.90;;;;;;5078221;28;20199;-75
2023/10/03 11:26:04;;;;;;;12.55;6.43;;;24.40;99.90;;;;;;5070472;28;21154;-79
2023/10/03 11:28:51;;;;;;;14.07;6.20;;;24.40;99.90;;;;;;5067459;28;20201;-76
2023/10/03 11:31:22;;;;;;;17.90;6.65;;;24.30;99.90;;;;;;5074254;28;20240;-78
2023/10/03 11:33:59;;;;;;;13.68;6.45;;;24.30;99.90;;;;;;5066062;28;20260;-75
2023/10/03 11:36:41;;;;;;;16.05;6.68;;;24.30;99.90;;;;;;5071718;28;20208;-79
2023/10/03 11:39:13;;;;;;;16.83;6.78;;;24.30;99.90;;;;;;5070655;28;20571;-77
2023/10/03 11:41:45;;;;;;;13.73;5.90;;;24.30;99.90;;;;;;5058826;28;20555;-76
2023/10/03 11:44:23;;;;;;;17.63;6.45;;;24.20;99.90;;;;;;5070149;28;20645;-76
2023/10/03 11:46:54;;;;;;;15.82;6.55;;;24.30;99.90;;;;;;5070568;28;20223;-75
2023/10/03 11:49:25;;;;;;;17.15;6.32;;;24.30;99.90;;;;;;5071564;28;20223;-77
2023/10/03 11:51:59;;;;;;;14.18;6.38;;;24.30;99.90;;;;;;5075231;28;20743;-79
2023/10/03 11:54:31;;;;;;;14.20;6.43;;;24.30;99.90;;;;;;5076353;28;20223;-77
2023/10/03 11:57:45;;;;;;;12.90;6.32;;;24.30;99.90;;;;;;5072156;28;20193;-79
2023/10/03 12:00:44;;;;;;;13.55;6.00;;;24.30;99.90;;;;;;5071355;28;20720;-76
2023/10/03 12:03:17;;;;;;;14.10;6.43;;;24.30;99.90;;;;;;5067489;28;20668;-76
2023/10/03 12:06:08;;;;;;;15.95;6.40;;;24.30;99.90;;;;;;5071510;28;20228;-75
2023/10/03 12:08:42;;;;;;;14.25;6.30;;;24.30;99.90;;;;;;5070601;28;20203;-79
2023/10/03 12:11:14;;;;;;;16.40;6.15;;;24.30;99.90;;;;;;5075675;28;20231;-78
2023/10/03 12:13:45;;;;;;;16.05;6.50;;;24.20;99.90;;;;;;5075348;28;20193;-77
2023/10/03 12:16:18;;;;;;;14.65;6.25;;;24.20;99.90;;;;;;5069970;28;20622;-76
2023/10/03 12:18:49;;;;;;;13.55;6.30;;;24.10;99.90;;;;;;5079881;28;20236;-75
2023/10/03 12:21:20;;;;;;;12.25;6.15;;;24.10;99.90;;;;;;5074393;28;20193;-75
2023/10/03 12:23:51;;;;;;;14.35;5.80;;;24.00;99.90;;;;;;5077817;28;20192;-75
2023/10/03 12:26:22;;;;;;;13.27;6.47;;;24.00;99.90;;;;;;5071534;28;20654;-77
2023/10/03 12:28:53;;;;;;;13.15;5.68;;;23.90;99.90;;;;;;5071002;28;20201;-75
2023/10/03 12:31:27;;;;;;;12.23;6.03;;;23.90;99.90;;;;;;5072940;28;20197;-78
2023/10/03 12:33:58;;;;;;;14.35;6.07;;;23.80;99.90;;;;;;5073348;28;20252;-78
2023/10/03 12:36:31;;;;;;;15.15;6.72;;;23.70;99.90;;;;;;5068597;28;20254;-78
2023/10/03 12:39:10;;;;;;;16.85;5.82;;;23.70;99.90;;;;;;5068016;28;20203;-75
2023/10/03 12:41:41;;;;;;;14.60;6.05;;;23.60;99.90;;;;;;5071148;28;20199;-76
2023/10/03 12:44:11;;;;;;;14.25;6.65;;;23.60;99.90;;;;;;5072129;28;20211;-76
2023/10/03 12:46:44;;;;;;;17.58;7.35;;;23.60;99.90;;;;;;5073413;28;20295;-78
2023/10/03 12:49:15;;;;;;;14.45;6.15;;;23.50;99.90;;;;;;5075304;28;20209;-78
2023/10/03 12:51:46;;;;;;;14.15;6.57;;;23.40;99.90;;;;;;5073570;28;20208;-77
2023/10/03 12:54:17;;;;;;;15.90;6.57;;;23.40;99.90;;;;;;5069040;28;20243;-77
2023/10/03 12:56:48;;;;;;;14.27;6.03;;;23.30;99.90;;;;;;5081471;28;20292;-77
2023/10/03 12:59:19;;;;;;;12.52;6.60;;;23.30;99.90;;;;;;5072791;28;20224;-76
2023/10/03 13:01:52;;;;;;;15.75;6.65;;;23.30;99.90;;;;;;5070639;28;20226;-77
2023/10/03 13:04:23;;;;;;;19.77;7.18;;;23.30;99.90;;;;;;5072013;28;20205;-76
2023/10/03 13:06:58;;;;;;;14.75;6.57;;;23.30;99.90;;;;;;5074469;28;20769;-76
2023/10/03 13:09:30;;;;;;;23.00;7.15;;;23.20;99.90;;;;;;5091911;28;20199;-75
2023/10/03 13:12:08;;;;;;;13.85;6.22;;;23.20;99.90;;;;;;5076706;28;20201;-75
2023/10/03 13:14:39;;;;;;;16.35;6.63;;;23.20;99.90;;;;;;5073731;28;20201;-75
2023/10/03 13:17:13;;;;;;;16.50;6.30;;;23.20;99.90;;;;;;5065346;28;20587;-74
2023/10/03 13:19:44;;;;;;;15.55;6.47;;;23.20;99.90;;;;;;5072789;28;20204;-76
2023/10/03 13:22:15;;;;;;;17.92;6.95;;;23.20;99.90;;;;;;5089273;28;20202;-76
2023/10/03 13:24:49;;;;;;;17.40;6.38;;;23.20;99.90;;;;;;5087780;28;20200;-75
2023/10/03 13:27:20;;;;;;;12.10;5.80;;;23.20;99.90;;;;;;5073230;28;20269;-75